Time;durP1;ratioP1;P1;durP2;ratioP2;P2;SDS_P1;SDS_P2;PMS_P1;PMS_P2;Temp;Humidity;BMP_temperature;BMP_pressure;BME280_temperature;BME280_humidity;BME280_pressure;Samples;Min_cycle;Max_cycle;Signal;HPM_P1;HPM_P2
2022/08/30 00:02:34;;;;;;;6.00;4.57;;;;;;;18.47;67.85;98792.66;5017246;28;20331;-53
2022/08/30 00:05:03;;;;;;;7.90;4.90;;;;;;;18.53;67.96;98792.69;5019806;28;20241;-54
2022/08/30 00:07:30;;;;;;;6.67;4.50;;;;;;;18.48;68.06;98791.63;5015122;28;20288;-56
2022/08/30 00:09:57;;;;;;;6.87;4.40;;;;;;;18.44;68.04;98791.22;5021098;28;20348;-53
2022/08/30 00:12:24;;;;;;;8.50;5.40;;;;;;;18.48;68.85;98794.28;5018135;28;20279;-53
2022/08/30 00:14:51;;;;;;;8.23;5.27;;;;;;;18.48;68.63;98789.00;5022454;28;20240;-55
2022/08/30 00:17:18;;;;;;;7.67;4.93;;;;;;;18.43;68.26;98789.59;5018957;28;20331;-55
2022/08/30 00:19:45;;;;;;;6.37;5.00;;;;;;;18.43;69.03;98786.94;5021673;28;20237;-54
2022/08/30 00:22:13;;;;;;;7.03;4.67;;;;;;;18.49;69.30;98793.25;5022692;28;20236;-55
2022/08/30 00:24:40;;;;;;;7.63;5.30;;;;;;;18.52;68.55;98791.06;5016828;28;20276;-55
2022/08/30 00:27:07;;;;;;;6.77;5.10;;;;;;;18.54;68.47;98790.84;5021936;28;20328;-54
2022/08/30 00:29:34;;;;;;;6.77;5.37;;;;;;;18.56;68.34;98791.47;4999819;28;20238;-56
2022/08/30 00:32:01;;;;;;;8.17;5.30;;;;;;;18.59;68.24;98799.00;5023520;28;20248;-55
2022/08/30 00:34:28;;;;;;;6.43;4.97;;;;;;;18.66;68.47;98791.06;5017692;28;20221;-53
2022/08/30 00:36:55;;;;;;;8.77;4.73;;;;;;;18.70;68.17;98790.47;5020593;28;20267;-54
2022/08/30 00:39:23;;;;;;;7.90;4.80;;;;;;;18.73;68.17;98795.38;5019382;28;20253;-52
2022/08/30 00:41:49;;;;;;;6.40;4.97;;;;;;;18.72;68.82;98792.91;5020418;28;20232;-55
2022/08/30 00:44:16;;;;;;;8.23;5.10;;;;;;;18.69;68.43;98788.84;5018908;28;20560;-53
2022/08/30 00:46:43;;;;;;;5.60;4.93;;;;;;;18.74;68.41;98788.25;5021304;28;20253;-54
2022/08/30 00:49:12;;;;;;;8.80;5.13;;;;;;;18.77;68.66;98795.78;5021060;28;20225;-55
2022/08/30 00:51:58;;;;;;;7.07;4.83;;;;;;;18.82;69.40;98796.00;5017817;28;20289;-54
2022/08/30 00:54:27;;;;;;;7.60;5.23;;;;;;;18.84;68.71;98793.97;5018113;28;20271;-54
2022/08/30 00:56:55;;;;;;;7.17;5.23;;;;;;;18.87;68.48;98787.47;5019684;28;20253;-53
2022/08/30 00:59:23;;;;;;;6.53;4.93;;;;;;;19.01;68.40;98793.63;5016259;28;20241;-54
2022/08/30 01:01:50;;;;;;;7.83;5.37;;;;;;;19.02;67.91;98789.94;5019493;28;20258;-55
2022/08/30 01:04:20;;;;;;;7.60;5.73;;;;;;;19.09;67.48;98787.28;5016371;28;21116;-52
2022/08/30 01:06:47;;;;;;;6.10;5.10;;;;;;;19.12;67.38;98797.47;5017499;28;20715;-55
2022/08/30 01:09:14;;;;;;;6.97;5.07;;;;;;;19.15;67.65;98795.25;5013740;28;20234;-54
2022/08/30 01:11:44;;;;;;;6.10;5.07;;;;;;;19.24;67.62;98797.72;5018432;28;20299;-52
2022/08/30 01:14:12;;;;;;;7.60;5.57;;;;;;;19.21;68.16;98801.56;5018406;28;20238;-55
2022/08/30 01:16:41;;;;;;;7.00;5.57;;;;;;;19.22;67.17;98805.03;5015937;28;20225;-52
2022/08/30 01:19:19;;;;;;;6.33;5.17;;;;;;;19.25;67.53;98799.34;5018582;28;20254;-53
2022/08/30 01:21:50;;;;;;;5.87;4.93;;;;;;;19.23;67.72;98799.53;5014871;28;20257;-53
2022/08/30 01:24:19;;;;;;;9.23;5.40;;;;;;;19.23;67.44;98794.22;5017735;28;20265;-55
2022/08/30 01:26:46;;;;;;;6.43;5.27;;;;;;;19.21;67.87;98798.91;5019848;28;20237;-55
2022/08/30 01:29:17;;;;;;;7.10;4.90;;;;;;;19.18;68.05;98805.44;5017927;28;20284;-55
2022/08/30 01:31:44;;;;;;;7.90;5.10;;;;;;;19.14;66.94;98792.78;5016824;28;20253;-53
2022/08/30 01:34:12;;;;;;;6.17;5.20;;;;;;;19.08;67.44;98798.94;5017853;28;20247;-56
2022/08/30 01:36:41;;;;;;;8.70;5.40;;;;;;;19.00;68.00;98795.47;5017607;28;20243;-54
2022/08/30 01:39:09;;;;;;;6.00;4.97;;;;;;;18.89;68.39;98796.81;5020163;28;20238;-53
2022/08/30 01:41:37;;;;;;;8.17;5.00;;;;;;;18.84;68.01;98793.16;5016921;28;20334;-54
2022/08/30 01:44:09;;;;;;;6.63;5.03;;;;;;;18.77;67.77;98790.47;5018481;28;20713;-55
2022/08/30 01:46:40;;;;;;;10.17;4.80;;;;;;;18.67;67.45;98787.41;5017199;28;20328;-56
2022/08/30 01:49:09;;;;;;;7.57;5.27;;;;;;;18.57;68.03;98793.88;5017429;28;20606;-55
2022/08/30 01:51:36;;;;;;;5.93;4.80;;;;;;;18.49;68.19;98799.38;5015858;28;20244;-54
2022/08/30 01:54:03;;;;;;;7.63;4.50;;;;;;;18.42;68.12;98796.69;5019601;28;20237;-56
2022/08/30 01:56:30;;;;;;;7.73;5.10;;;;;;;18.36;68.78;98799.31;5014804;28;20232;-55
2022/08/30 01:58:59;;;;;;;9.47;5.30;;;;;;;18.31;68.82;98801.75;5020867;28;20791;-55
2022/08/30 02:01:28;;;;;;;7.07;5.27;;;;;;;18.25;69.88;98798.03;5016180;28;20267;-55
2022/08/30 02:03:56;;;;;;;7.80;5.60;;;;;;;18.24;70.86;98796.41;5017706;28;20241;-55
2022/08/30 02:06:24;;;;;;;7.23;6.27;;;;;;;18.17;70.88;98798.19;5015924;28;20235;-55
2022/08/30 02:08:51;;;;;;;5.97;5.37;;;;;;;18.13;71.50;98798.59;5016549;28;20680;-55
2022/08/30 02:11:18;;;;;;;7.30;5.10;;;;;;;18.08;71.90;98803.66;5016044;28;20264;-52
2022/08/30 02:13:46;;;;;;;8.70;6.20;;;;;;;17.99;72.08;98808.28;5019128;28;20227;-56
2022/08/30 02:16:17;;;;;;;9.47;5.90;;;;;;;17.93;72.44;98798.47;5020408;28;20579;-56
2022/08/30 02:18:45;;;;;;;6.67;5.80;;;;;;;17.91;72.61;98799.69;5017029;28;20328;-56
2022/08/30 02:21:13;;;;;;;7.50;6.13;;;;;;;17.88;73.18;98790.31;5019501;28;20260;-54
2022/08/30 02:23:40;;;;;;;7.00;5.60;;;;;;;17.89;73.53;98793.78;5017062;28;20251;-53
2022/08/30 02:26:06;;;;;;;8.47;6.20;;;;;;;17.95;73.34;98790.38;5018650;28;20227;-56
2022/08/30 02:28:33;;;;;;;7.37;5.90;;;;;;;17.97;73.05;98796.28;5013839;28;20243;-55
2022/08/30 02:31:01;;;;;;;7.63;6.10;;;;;;;18.08;72.91;98790.44;5018586;28;20271;-53
2022/08/30 02:33:30;;;;;;;8.97;6.17;;;;;;;18.12;72.35;98794.31;5016931;28;20289;-55
2022/08/30 02:35:57;;;;;;;6.80;6.10;;;;;;;18.20;71.97;98781.97;5019854;28;20249;-54
2022/08/30 02:38:24;;;;;;;8.47;5.83;;;;;;;18.29;71.58;98778.16;5016016;28;20232;-54
2022/08/30 02:40:51;;;;;;;8.77;5.47;;;;;;;18.40;70.66;98776.78;5018572;28;20230;-54
2022/08/30 02:43:19;;;;;;;7.50;5.67;;;;;;;18.43;71.14;98776.38;5015454;28;20224;-51
2022/08/30 02:45:46;;;;;;;7.53;6.37;;;;;;;18.48;70.80;98778.41;5016891;28;20225;-51
2022/08/30 02:48:12;;;;;;;7.03;5.80;;;;;;;18.54;70.63;98774.97;5017752;28;20268;-51
2022/08/30 02:50:42;;;;;;;8.53;6.13;;;;;;;18.58;70.96;98773.56;5014055;28;20720;-54
2022/08/30 02:53:08;;;;;;;7.27;5.73;;;;;;;18.53;70.93;98776.81;5016663;28;20244;-53
2022/08/30 02:55:35;;;;;;;6.60;5.60;;;;;;;18.56;71.18;98772.94;5014828;28;20242;-55
2022/08/30 02:58:02;;;;;;;9.93;6.07;;;;;;;18.58;71.06;98770.94;5018861;28;20292;-52
2022/08/30 03:00:30;;;;;;;9.50;5.93;;;;;;;18.63;71.12;98768.50;5014743;28;20226;-54
2022/08/30 03:02:57;;;;;;;7.40;5.70;;;;;;;18.59;71.08;98761.97;5020211;28;20234;-53
2022/08/30 03:05:24;;;;;;;6.73;5.83;;;;;;;18.64;70.29;98756.91;5015165;28;20309;-52
2022/08/30 03:07:53;;;;;;;7.83;6.27;;;;;;;18.73;70.19;98758.34;5018683;28;20247;-55
2022/08/30 03:10:20;;;;;;;9.23;5.83;;;;;;;18.92;69.94;98765.69;5013236;28;20221;-53
2022/08/30 03:12:47;;;;;;;7.10;6.00;;;;;;;18.89;69.83;98759.00;5008185;28;20276;-53
2022/08/30 03:15:15;;;;;;;9.30;6.07;;;;;;;18.86;69.59;98767.31;4998205;28;20355;-54
2022/08/30 03:17:43;;;;;;;7.40;6.50;;;;;;;18.81;69.53;98767.91;5022890;28;20229;-53
2022/08/30 03:20:11;;;;;;;6.27;5.67;;;;;;;18.75;70.10;98768.72;5021822;28;20265;-54
2022/08/30 03:22:39;;;;;;;6.43;5.57;;;;;;;18.72;69.58;98759.38;5017457;28;20244;-55
2022/08/30 03:25:08;;;;;;;10.70;5.90;;;;;;;18.86;69.78;98759.38;5020729;28;20226;-53
2022/08/30 03:27:35;;;;;;;9.87;6.63;;;;;;;18.88;68.89;98758.16;5018331;28;20229;-53
2022/08/30 03:30:03;;;;;;;7.93;6.27;;;;;;;18.93;68.51;98754.94;5021264;28;20232;-55
2022/08/30 03:32:30;;;;;;;8.03;6.17;;;;;;;18.93;68.42;98762.88;5007347;28;20350;-56
2022/08/30 03:34:57;;;;;;;7.50;6.60;;;;;;;18.94;69.51;98758.38;5021281;28;20236;-55
2022/08/30 03:37:23;;;;;;;11.53;6.40;;;;;;;18.94;69.51;98758.38;5001492;28;20257;-55
2022/08/30 03:39:50;;;;;;;7.97;6.30;;;;;;;18.87;69.01;98753.88;5020485;28;20239;-56
2022/08/30 03:42:18;;;;;;;8.57;6.40;;;;;;;18.78;69.66;98751.66;4999275;28;20241;-55
2022/08/30 03:44:45;;;;;;;6.97;5.47;;;;;;;18.66;70.80;98757.53;5013255;28;20234;-55
2022/08/30 03:47:12;;;;;;;7.50;5.70;;;;;;;18.63;71.36;98757.94;5021953;28;20738;-52
2022/08/30 03:49:39;;;;;;;8.27;6.40;;;;;;;18.56;71.62;98762.38;5019488;28;20296;-52
2022/08/30 03:52:06;;;;;;;7.07;5.80;;;;;;;18.42;71.38;98757.06;5022663;28;20248;-55
2022/08/30 03:54:33;;;;;;;6.17;5.47;;;;;;;18.26;71.11;98758.22;5017938;28;20885;-54
2022/08/30 03:57:00;;;;;;;7.30;5.43;;;;;;;18.13;70.97;98766.09;5022476;28;20233;-56
2022/08/30 03:59:27;;;;;;;9.37;5.60;;;;;;;17.96;71.20;98768.22;5017212;28;20234;-55
2022/08/30 04:01:54;;;;;;;8.87;5.50;;;;;;;17.79;71.34;98763.25;5023466;28;20276;-55
2022/08/30 04:04:21;;;;;;;7.80;5.53;;;;;;;17.68;71.40;98763.81;5001647;28;20318;-52
2022/08/30 04:06:49;;;;;;;8.60;5.93;;;;;;;17.55;71.47;98767.16;5019726;28;20792;-54
2022/08/30 04:09:15;;;;;;;9.00;5.73;;;;;;;17.43;72.26;98761.59;5018248;28;20314;-52
2022/08/30 04:11:42;;;;;;;6.90;5.53;;;;;;;17.32;71.86;98765.59;5019580;28;20249;-53
2022/08/30 04:14:09;;;;;;;7.97;6.17;;;;;;;17.22;72.83;98763.25;5021290;28;20223;-52
2022/08/30 04:16:37;;;;;;;10.47;6.20;;;;;;;17.11;74.13;98771.69;5017990;28;20249;-55
2022/08/30 04:19:04;;;;;;;9.67;6.40;;;;;;;17.02;74.31;98768.38;5021348;28;20229;-54
2022/08/30 04:21:31;;;;;;;10.50;6.57;;;;;;;16.92;74.89;98765.22;5018174;28;20227;-52
2022/08/30 04:23:58;;;;;;;13.80;6.27;;;;;;;16.83;74.97;98777.72;5020084;28;20766;-52
2022/08/30 04:26:25;;;;;;;11.47;5.90;;;;;;;16.79;75.92;98777.25;5017717;28;20322;-52
2022/08/30 04:28:53;;;;;;;7.63;5.73;;;;;;;16.72;75.30;98781.63;5020176;28;20252;-54
2022/08/30 04:31:20;;;;;;;9.37;5.83;;;;;;;16.70;76.24;98778.38;5016418;28;20270;-54
2022/08/30 04:33:48;;;;;;;8.87;5.77;;;;;;;16.70;76.25;98781.00;5018882;28;20925;-52
2022/08/30 04:36:15;;;;;;;6.53;5.40;;;;;;;16.64;75.80;98779.13;5016480;28;20322;-53
2022/08/30 04:38:42;;;;;;;7.87;6.00;;;;;;;16.58;75.89;98772.78;5020282;28;20220;-54
2022/08/30 04:41:12;;;;;;;9.07;6.00;;;;;;;16.52;76.56;98771.69;5020867;28;20238;-54
2022/08/30 04:43:39;;;;;;;9.63;6.20;;;;;;;16.47;76.98;98766.16;5018085;28;20586;-52
2022/08/30 04:46:08;;;;;;;9.13;6.00;;;;;;;16.43;77.20;98772.81;5021499;28;20260;-55
2022/08/30 04:48:35;;;;;;;7.03;6.17;;;;;;;16.43;78.03;98772.81;5016792;28;21200;-56
2022/08/30 04:51:05;;;;;;;9.27;6.27;;;;;;;16.44;78.24;98773.63;5020879;28;20223;-55
2022/08/30 04:53:32;;;;;;;8.87;6.23;;;;;;;16.46;78.78;98774.28;5016011;28;20240;-54
2022/08/30 04:55:59;;;;;;;8.87;6.13;;;;;;;16.47;79.39;98783.81;5019495;28;20255;-54
2022/08/30 04:58:26;;;;;;;9.40;7.13;;;;;;;16.48;79.26;98778.34;5017548;28;20293;-53
2022/08/30 05:00:53;;;;;;;12.83;7.40;;;;;;;16.46;79.76;98780.34;5019382;28;20233;-52
2022/08/30 05:03:20;;;;;;;9.03;7.33;;;;;;;16.45;80.12;98781.34;5016282;28;20236;-55
2022/08/30 05:05:48;;;;;;;7.77;6.33;;;;;;;16.46;80.52;98782.97;5022508;28;20334;-52
2022/08/30 05:08:18;;;;;;;9.47;7.07;;;;;;;16.49;82.00;98781.81;5016613;28;20259;-54
2022/08/30 05:10:47;;;;;;;8.37;6.43;;;;;;;16.54;82.22;98792.59;5019859;28;20255;-52
2022/08/30 05:13:15;;;;;;;8.13;6.93;;;;;;;16.64;82.90;98787.03;5017646;28;20319;-54
2022/08/30 05:15:42;;;;;;;8.50;7.30;;;;;;;16.70;82.76;98793.38;5017643;28;20228;-55
2022/08/30 05:18:10;;;;;;;7.90;7.10;;;;;;;16.74;82.52;98802.56;5019725;28;20315;-52
2022/08/30 05:20:38;;;;;;;10.83;6.90;;;;;;;16.77;81.59;98810.91;4995540;28;20361;-54
2022/08/30 05:23:06;;;;;;;14.03;7.27;;;;;;;16.81;80.49;98812.16;5017982;28;20678;-54
2022/08/30 05:25:38;;;;;;;10.17;7.00;;;;;;;16.82;80.91;98813.78;5017406;28;20228;-53
2022/08/30 05:28:05;;;;;;;10.83;6.87;;;;;;;16.85;79.82;98824.97;5019249;28;20325;-55
2022/08/30 05:30:33;;;;;;;10.77;7.03;;;;;;;16.87;78.84;98821.16;5011007;28;20228;-53
2022/08/30 05:33:00;;;;;;;8.10;6.90;;;;;;;16.88;78.52;98811.41;5020021;28;20239;-53
2022/08/30 05:35:27;;;;;;;10.37;6.83;;;;;;;16.87;77.98;98800.06;5018701;28;20643;-54
2022/08/30 05:37:54;;;;;;;7.47;6.37;;;;;;;16.88;78.17;98803.50;5019775;28;20958;-54
2022/08/30 05:40:22;;;;;;;7.03;5.87;;;;;;;16.88;77.76;98800.88;5017163;28;20228;-55
2022/08/30 05:42:50;;;;;;;10.77;6.87;;;;;;;16.89;78.86;98805.97;5017355;28;20241;-54
2022/08/30 05:45:17;;;;;;;10.93;7.27;;;;;;;16.99;79.38;98802.19;5016260;28;20242;-54
2022/08/30 05:47:46;;;;;;;8.70;7.17;;;;;;;16.99;79.59;98802.19;5018807;28;20232;-54
2022/08/30 05:50:14;;;;;;;8.73;6.50;;;;;;;17.02;80.31;98801.81;5019416;28;20224;-52
2022/08/30 05:52:42;;;;;;;8.00;6.80;;;;;;;17.07;80.03;98799.44;5016900;28;20241;-54
2022/08/30 05:55:11;;;;;;;11.67;6.70;;;;;;;17.06;80.08;98796.00;5018856;28;20230;-55
2022/08/30 05:57:39;;;;;;;7.57;6.67;;;;;;;17.12;79.61;98797.06;5015817;28;20307;-55
2022/08/30 06:00:10;;;;;;;9.23;6.40;;;;;;;17.14;79.54;98800.31;5019003;28;20310;-52
2022/08/30 06:02:40;;;;;;;13.73;7.47;;;;;;;17.20;79.52;98798.78;5014536;28;21045;-54
2022/08/30 06:05:08;;;;;;;9.97;6.87;;;;;;;17.25;79.60;98797.19;5019214;28;20232;-54
2022/08/30 06:07:35;;;;;;;11.53;7.50;;;;;;;17.33;79.54;98798.06;5014414;28;20238;-54
2022/08/30 06:10:02;;;;;;;8.20;6.80;;;;;;;17.37;78.71;98804.59;5016897;28;20238;-52
2022/08/30 06:12:29;;;;;;;22.13;7.23;;;;;;;17.38;76.90;98809.69;5013972;28;20223;-55
2022/08/30 06:14:56;;;;;;;11.00;6.97;;;;;;;17.45;76.36;98820.28;5017376;28;20654;-55
2022/08/30 06:17:24;;;;;;;13.10;6.97;;;;;;;17.51;76.73;98816.03;5001514;28;20651;-55
2022/08/30 06:19:51;;;;;;;8.63;6.93;;;;;;;17.56;76.33;98819.75;5018392;28;20289;-53
2022/08/30 06:22:17;;;;;;;8.33;5.93;;;;;;;17.71;75.04;98826.78;5014389;28;20235;-55
2022/08/30 06:24:44;;;;;;;10.40;6.63;;;;;;;17.76;73.87;98826.19;5017363;28;20218;-55
2022/08/30 06:27:11;;;;;;;10.17;6.47;;;;;;;17.82;72.70;98825.41;5019313;28;20248;-54
2022/08/30 06:29:38;;;;;;;10.90;6.93;;;;;;;17.81;71.58;98831.69;5015465;28;20369;-55
2022/08/30 06:32:05;;;;;;;12.53;6.60;;;;;;;17.90;71.19;98827.91;5020057;28;20276;-54
2022/08/30 06:34:33;;;;;;;9.57;5.50;;;;;;;17.93;71.85;98829.34;5015188;28;20227;-55
2022/08/30 06:37:00;;;;;;;10.67;7.10;;;;;;;18.00;71.95;98833.69;5001598;28;20236;-53
2022/08/30 06:39:27;;;;;;;13.33;5.90;;;;;;;18.12;72.39;98833.94;5016009;28;20788;-55
2022/08/30 06:41:54;;;;;;;9.90;6.60;;;;;;;18.24;71.01;98833.41;5017273;28;20260;-52
2022/08/30 06:44:26;;;;;;;7.23;6.00;;;;;;;18.42;70.53;98840.81;5016454;28;20229;-55
2022/08/30 06:46:53;;;;;;;10.73;5.93;;;;;;;18.57;69.87;98835.38;5018576;28;20234;-54
2022/08/30 06:49:20;;;;;;;9.50;6.60;;;;;;;18.74;69.28;98827.91;5018676;28;20222;-55
2022/08/30 06:51:48;;;;;;;7.97;5.83;;;;;;;18.87;68.53;98841.16;5018714;28;20325;-52
2022/08/30 06:54:15;;;;;;;10.17;6.03;;;;;;;19.04;68.08;98846.13;5020568;28;20320;-56
2022/08/30 06:56:42;;;;;;;9.80;6.37;;;;;;;19.17;67.48;98840.03;5019643;28;20635;-52
2022/08/30 06:59:09;;;;;;;10.23;5.90;;;;;;;19.29;66.81;98838.41;5021341;28;20232;-54
2022/08/30 07:01:35;;;;;;;9.70;6.30;;;;;;;19.47;66.34;98842.28;5018426;28;20239;-55
2022/08/30 07:04:03;;;;;;;9.43;5.37;;;;;;;19.60;66.26;98846.78;5020834;28;20255;-55
2022/08/30 07:06:32;;;;;;;12.47;6.27;;;;;;;19.71;65.81;98846.16;5019866;28;20206;-54
2022/08/30 07:09:00;;;;;;;11.93;6.23;;;;;;;19.85;65.47;98849.59;5022550;28;20560;-56
2022/08/30 07:11:32;;;;;;;9.83;6.10;;;;;;;19.98;65.15;98861.25;5020204;28;20566;-53
2022/08/30 07:14:00;;;;;;;11.50;6.27;;;;;;;20.08;64.08;98856.34;5018425;28;20249;-55
2022/08/30 07:16:27;;;;;;;12.60;6.90;;;;;;;20.16;62.92;98853.44;5017246;28;20231;-51
2022/08/30 07:18:53;;;;;;;9.67;6.43;;;;;;;20.19;63.03;98866.28;5022284;28;20247;-54
2022/08/30 07:21:26;;;;;;;12.57;6.87;;;;;;;20.18;62.92;98864.63;5018912;28;20222;-54
2022/08/30 07:23:54;;;;;;;12.13;6.87;;;;;;;20.08;63.26;98869.59;5020994;28;20322;-54
2022/08/30 07:26:27;;;;;;;13.50;7.60;;;;;;;19.91;63.70;98871.84;5019964;28;20218;-54
2022/08/30 07:28:54;;;;;;;13.67;7.10;;;;;;;20.26;62.97;98870.75;5021581;28;20238;-55
2022/08/30 07:31:21;;;;;;;9.20;6.40;;;;;;;20.42;61.91;98861.53;5016937;28;20219;-54
2022/08/30 07:33:48;;;;;;;9.40;6.03;;;;;;;20.45;61.93;98863.78;5020667;28;20236;-54
2022/08/30 07:36:20;;;;;;;10.20;7.20;;;;;;;20.50;61.14;98854.16;5018890;28;20269;-55
2022/08/30 07:38:48;;;;;;;10.37;6.50;;;;;;;20.56;61.49;98854.34;5019282;28;20253;-54
2022/08/30 07:41:20;;;;;;;9.93;6.53;;;;;;;20.62;61.22;98856.97;5022114;28;20663;-54
2022/08/30 07:43:48;;;;;;;9.93;6.93;;;;;;;20.77;61.17;98848.75;5015995;28;20245;-55
2022/08/30 07:46:15;;;;;;;9.47;6.20;;;;;;;20.90;60.12;98852.38;5019418;28;20251;-56
2022/08/30 07:48:43;;;;;;;9.37;6.90;;;;;;;20.92;60.31;98850.31;5016846;28;20652;-55
2022/08/30 07:51:11;;;;;;;7.77;6.13;;;;;;;21.09;59.64;98862.06;5019648;28;20227;-54
2022/08/30 07:53:38;;;;;;;9.60;6.10;;;;;;;21.13;59.80;98857.13;5016628;28;20878;-61
2022/08/30 07:56:06;;;;;;;9.87;5.97;;;;;;;21.09;59.92;98856.75;5019937;28;20248;-55
2022/08/30 07:58:33;;;;;;;11.63;6.17;;;;;;;21.33;60.00;98864.94;5017351;28;20227;-54
2022/08/30 08:01:01;;;;;;;10.93;6.60;;;;;;;21.30;58.72;98859.25;5018884;28;20587;-52
2022/08/30 08:03:49;;;;;;;11.63;6.63;;;;;;;21.31;59.86;98863.53;5017113;28;20265;-55
2022/08/30 08:06:17;;;;;;;14.33;5.97;;;;;;;21.55;58.59;98861.91;5019532;28;20232;-55
2022/08/30 08:08:44;;;;;;;8.60;6.43;;;;;;;21.59;58.24;98857.00;5017350;28;20238;-55
2022/08/30 08:11:15;;;;;;;10.93;6.10;;;;;;;21.61;58.13;98863.72;5020542;28;21338;-55
2022/08/30 08:13:44;;;;;;;12.50;6.47;;;;;;;21.56;57.89;98860.91;4999158;28;20315;-52
2022/08/30 08:16:12;;;;;;;13.27;5.90;;;;;;;21.74;57.90;98862.00;5016735;28;20224;-55
2022/08/30 08:18:39;;;;;;;10.50;6.17;;;;;;;21.82;57.17;98867.03;4980311;28;20402;-55
2022/08/30 08:21:06;;;;;;;10.30;6.33;;;;;;;21.76;58.17;98865.25;5005256;28;20250;-52
2022/08/30 08:23:33;;;;;;;9.47;5.83;;;;;;;21.88;58.00;98865.34;5017262;28;20253;-55
2022/08/30 08:25:59;;;;;;;11.43;6.37;;;;;;;21.98;57.21;98860.34;5020559;28;20235;-53
2022/08/30 08:28:27;;;;;;;10.03;6.27;;;;;;;22.11;56.57;98862.06;5016505;28;20281;-55
2022/08/30 08:30:54;;;;;;;9.53;6.00;;;;;;;21.89;57.23;98854.50;5018690;28;20241;-54
2022/08/30 08:33:22;;;;;;;10.60;6.43;;;;;;;22.16;56.98;98853.41;5017514;28;20248;-55
2022/08/30 08:35:49;;;;;;;10.00;6.03;;;;;;;22.19;57.25;98852.97;5020021;28;20238;-55
2022/08/30 08:38:16;;;;;;;11.33;6.50;;;;;;;22.37;55.87;98860.13;5020474;28;20702;-54
2022/08/30 08:40:55;;;;;;;10.83;6.47;;;;;;;22.34;56.09;98858.75;5018108;28;20243;-53
2022/08/30 08:43:25;;;;;;;10.57;6.57;;;;;;;22.28;56.94;98851.66;5018202;28;20698;-53
2022/08/30 08:45:57;;;;;;;12.30;6.10;;;;;;;22.36;56.38;98850.53;5015247;28;20266;-53
2022/08/30 08:48:34;;;;;;;9.70;5.47;;;;;;;22.40;55.51;98855.19;5014339;28;20596;-54
2022/08/30 08:53:52;;;;;;;10.00;5.73;;;;;;;22.43;55.98;98853.91;5018841;28;20224;-54
2022/08/30 08:56:20;;;;;;;6.23;5.57;;;;;;;22.55;55.88;98851.38;5016374;28;20593;-54
2022/08/30 08:58:50;;;;;;;11.70;6.03;;;;;;;22.39;56.16;98850.09;5019363;28;20247;-54
2022/08/30 09:01:19;;;;;;;7.30;5.70;;;;;;;22.52;56.26;98849.97;5015969;28;20625;-52
2022/08/30 09:03:48;;;;;;;7.57;5.73;;;;;;;22.77;55.10;98848.22;5018809;28;20231;-54
2022/08/30 09:06:41;;;;;;;7.53;5.57;;;;;;;22.75;55.77;98847.66;5018430;28;20220;-51
2022/08/30 09:09:08;;;;;;;7.97;5.40;;;;;;;22.97;54.91;98855.94;5007709;28;20314;-52
2022/08/30 09:11:37;;;;;;;10.97;5.77;;;;;;;22.95;54.61;98840.19;5017623;28;20331;-55
2022/08/30 09:14:27;;;;;;;9.00;5.67;;;;;;;22.88;55.75;98838.66;5017315;28;20347;-55
2022/08/30 09:16:58;;;;;;;8.23;5.53;;;;;;;23.12;55.08;98836.88;5017791;28;20322;-55
2022/08/30 09:19:36;;;;;;;6.30;5.30;;;;;;;23.04;54.83;98837.19;5016754;28;20231;-51
2022/08/30 09:22:11;;;;;;;8.73;5.50;;;;;;;23.14;53.79;98838.28;5018784;28;20320;-51
2022/08/30 09:24:41;;;;;;;7.20;4.93;;;;;;;23.40;54.69;98836.25;5015977;28;20374;-53
2022/08/30 09:27:15;;;;;;;6.37;4.90;;;;;;;23.49;53.17;98841.25;5017753;28;20233;-51
2022/08/30 09:29:50;;;;;;;6.57;5.07;;;;;;;23.50;52.64;98838.38;5012165;28;20239;-53
2022/08/30 09:32:24;;;;;;;7.83;5.10;;;;;;;23.51;52.86;98832.00;5013159;28;20252;-52
2022/08/30 09:34:52;;;;;;;6.20;5.10;;;;;;;23.55;53.28;98835.81;5020444;28;20700;-55
2022/08/30 09:37:29;;;;;;;11.10;5.20;;;;;;;23.63;52.90;98826.66;5016792;28;20228;-51
2022/08/30 09:39:56;;;;;;;8.00;5.30;;;;;;;23.86;51.80;98828.50;5019197;28;20320;-53
2022/08/30 09:42:27;;;;;;;10.57;4.70;;;;;;;23.70;53.14;98830.00;5014234;28;20238;-53
2022/08/30 09:45:09;;;;;;;10.80;5.07;;;;;;;23.73;53.11;98821.56;5018624;28;20237;-55
2022/08/30 09:47:38;;;;;;;8.33;4.63;;;;;;;23.70;52.68;98823.88;5014795;28;20309;-52
2022/08/30 09:50:09;;;;;;;6.67;4.60;;;;;;;23.86;52.52;98809.03;5018701;28;20246;-51
2022/08/30 09:52:47;;;;;;;9.80;4.40;;;;;;;24.00;52.65;98810.44;5017940;28;23953;-53
2022/08/30 09:55:35;;;;;;;9.60;4.77;;;;;;;24.11;52.07;98808.00;5021398;28;20228;-51
2022/08/30 09:58:09;;;;;;;6.17;4.27;;;;;;;24.36;51.67;98804.22;5015678;28;20242;-51
2022/08/30 10:01:04;;;;;;;9.13;4.70;;;;;;;24.68;50.77;98803.72;5015177;28;20803;-54
2022/08/30 10:03:36;;;;;;;8.67;4.40;;;;;;;24.81;49.71;98803.47;5016485;28;20253;-54
2022/08/30 10:06:13;;;;;;;6.17;4.40;;;;;;;24.77;49.90;98794.31;5019465;28;20260;-51
2022/08/30 10:08:50;;;;;;;8.67;4.77;;;;;;;24.42;51.08;98788.06;5015821;28;20224;-52
2022/08/30 10:11:27;;;;;;;7.47;4.63;;;;;;;24.37;51.57;98787.16;5016773;28;20225;-54
2022/08/30 10:14:05;;;;;;;7.50;5.03;;;;;;;24.59;50.74;98779.28;5018795;28;20292;-54
2022/08/30 10:16:43;;;;;;;10.87;5.13;;;;;;;24.68;50.87;98785.03;5012758;28;20231;-52
2022/08/30 10:19:28;;;;;;;11.50;4.43;;;;;;;24.94;50.32;98785.53;5018692;28;20767;-54
2022/08/30 10:22:02;;;;;;;10.27;5.07;;;;;;;25.10;50.35;98782.06;5015392;28;20280;-53
2022/08/30 10:24:33;;;;;;;8.53;4.50;;;;;;;25.32;49.60;98778.66;5012130;28;20233;-54
2022/08/30 10:27:06;;;;;;;8.47;4.70;;;;;;;25.42;50.23;98776.16;5017888;28;20246;-53
2022/08/30 10:29:38;;;;;;;9.67;4.63;;;;;;;25.67;48.90;98782.13;5015619;28;20235;-54
2022/08/30 10:32:16;;;;;;;5.93;4.77;;;;;;;25.82;48.13;98790.34;5017821;28;20267;-54
2022/08/30 10:34:48;;;;;;;11.57;5.13;;;;;;;26.03;47.60;98780.72;5018843;28;20234;-52
2022/08/30 10:37:23;;;;;;;7.80;5.07;;;;;;;26.26;46.87;98778.88;5020505;28;20233;-53
2022/08/30 10:39:52;;;;;;;6.93;5.00;;;;;;;26.35;46.67;98787.25;5017668;28;20351;-53
2022/08/30 10:42:24;;;;;;;8.87;5.20;;;;;;;26.67;46.69;98778.47;5016355;28;20228;-54
2022/08/30 10:44:58;;;;;;;7.60;5.00;;;;;;;26.93;45.99;98784.91;5020075;28;20238;-54
2022/08/30 10:47:33;;;;;;;11.03;5.20;;;;;;;26.96;46.87;98784.38;5013918;28;20228;-55
2022/08/30 10:50:10;;;;;;;10.77;4.77;;;;;;;26.92;45.79;98787.84;5017781;28;20350;-55
2022/08/30 10:52:46;;;;;;;8.43;4.63;;;;;;;27.03;45.84;98783.38;5014403;28;20250;-55
2022/08/30 10:55:17;;;;;;;13.27;5.00;;;;;;;27.19;44.79;98787.78;5018583;28;20307;-54
2022/08/30 10:57:45;;;;;;;8.07;4.63;;;;;;;27.35;45.75;98786.00;5015581;28;20324;-55
2022/08/30 11:00:15;;;;;;;8.27;4.90;;;;;;;27.68;44.34;98789.47;5018119;28;20916;-55
2022/08/30 11:03:32;;;;;;;8.10;5.10;;;;;;;27.53;44.36;98792.06;5013012;28;20328;-54
2022/08/30 11:06:16;;;;;;;10.30;4.83;;;;;;;27.31;44.99;98789.47;4914565;29;20255;-55
2022/08/30 11:09:07;;;;;;;8.63;4.93;;;;;;;26.86;46.17;98778.94;5003108;28;20629;-52
2022/08/30 11:11:49;;;;;;;6.30;4.17;;;;;;;27.34;45.61;98781.72;5014434;28;20805;-51
2022/08/30 11:14:18;;;;;;;7.13;4.53;;;;;;;27.50;44.76;98781.84;5017046;28;20225;-54
2022/08/30 11:16:48;;;;;;;8.00;4.30;;;;;;;27.58;44.83;98784.06;5013955;28;20373;-53
2022/08/30 11:19:20;;;;;;;8.73;4.93;;;;;;;27.94;43.47;98780.72;5017142;28;20261;-53
2022/08/30 11:21:47;;;;;;;11.07;4.78;;;;;;;27.80;43.81;98780.41;5016019;28;20249;-55
2022/08/30 11:24:19;;;;;;;7.87;4.63;;;;;;;28.24;44.07;98790.00;5017678;28;20232;-53
2022/08/30 11:27:01;;;;;;;9.53;5.07;;;;;;;28.50;42.47;98798.13;5015476;28;20584;-53
2022/08/30 11:29:34;;;;;;;6.87;4.47;;;;;;;28.50;42.88;98785.50;5014769;28;20232;-55
2022/08/30 11:32:23;;;;;;;13.97;4.33;;;;;;;28.73;42.59;98786.88;5016780;28;20255;-53
2022/08/30 11:34:55;;;;;;;7.80;4.45;;;;;;;28.91;40.83;98790.16;5016109;28;20317;-54
2022/08/30 11:37:34;;;;;;;11.00;4.53;;;;;;;28.43;42.74;98777.72;5017764;28;20225;-52
2022/08/30 11:40:05;;;;;;;5.97;4.20;;;;;;;28.63;42.88;98781.47;5021530;28;20640;-54
2022/08/30 11:42:43;;;;;;;7.53;4.57;;;;;;;28.67;41.23;98769.13;5015873;28;20242;-53
2022/08/30 11:45:46;;;;;;;5.77;4.63;;;;;;;28.50;41.43;98782.03;5002796;28;20256;-53
2022/08/30 11:48:40;;;;;;;8.80;4.90;;;;;;;28.76;41.57;98765.94;5017314;28;20224;-55